Time;durP1;ratioP1;P1;durP2;ratioP2;P2;SDS_P1;SDS_P2;PMS_P1;PMS_P2;Temp;Humidity;BMP_temperature;BMP_pressure;BME280_temperature;BME280_humidity;BME280_pressure;Samples;Min_cycle;Max_cycle;Signal;HPM_P1;HPM_P2
2023/12/10 00:00:21;;;;;;;20.13;19.40;;;21.50;51.90;;;;;;4985008;28;20522;-63
2023/12/10 00:02:48;;;;;;;19.63;18.80;;;21.50;52.00;;;;;;4992857;28;20443;-63
2023/12/10 00:05:16;;;;;;;19.70;19.00;;;21.50;52.00;;;;;;4992408;28;20509;-63
2023/12/10 00:07:43;;;;;;;19.70;19.00;;;21.50;52.00;;;;;;4992457;28;20501;-62
2023/12/10 00:10:10;;;;;;;19.10;18.30;;;21.50;52.00;;;;;;4992642;28;20486;-63
2023/12/10 00:12:37;;;;;;;19.17;18.57;;;21.50;52.10;;;;;;4992940;28;20438;-63
2023/12/10 00:15:05;;;;;;;19.77;19.10;;;21.50;52.10;;;;;;4992603;28;20450;-63
2023/12/10 00:17:32;;;;;;;19.20;18.50;;;21.50;52.10;;;;;;4992618;28;20447;-63
2023/12/10 00:19:59;;;;;;;19.00;18.40;;;21.50;52.10;;;;;;4992043;28;20439;-64
2023/12/10 00:22:28;;;;;;;19.27;18.67;;;21.50;52.10;;;;;;4992454;28;20439;-63
2023/12/10 00:24:54;;;;;;;20.10;19.40;;;21.50;52.20;;;;;;4992550;28;20934;-63
2023/12/10 00:27:21;;;;;;;20.13;19.37;;;21.40;52.10;;;;;;4984569;28;20447;-63
2023/12/10 00:29:48;;;;;;;26.10;24.80;;;21.50;52.20;;;;;;4992555;28;20483;-63
2023/12/10 00:32:15;;;;;;;19.63;19.00;;;21.40;52.20;;;;;;4991217;28;20490;-63
2023/12/10 00:34:42;;;;;;;20.60;19.60;;;21.40;52.10;;;;;;4991835;28;20447;-63
2023/12/10 00:37:09;;;;;;;20.10;19.27;;;21.40;52.20;;;;;;4992135;28;20934;-63
2023/12/10 00:39:39;;;;;;;19.50;18.73;;;21.40;52.10;;;;;;4992410;28;20443;-63
2023/12/10 00:42:06;;;;;;;19.57;18.97;;;21.40;52.00;;;;;;4991998;28;20463;-63
2023/12/10 00:44:33;;;;;;;19.43;18.83;;;21.40;52.10;;;;;;4992037;28;20443;-63
2023/12/10 00:47:00;;;;;;;19.60;18.60;;;21.40;52.10;;;;;;4992262;28;20476;-63
2023/12/10 00:49:27;;;;;;;19.30;18.60;;;21.40;52.20;;;;;;4992010;28;20560;-64
2023/12/10 00:51:54;;;;;;;19.50;18.90;;;21.40;52.30;;;;;;4998404;28;20459;-64
2023/12/10 00:54:21;;;;;;;19.40;18.80;;;21.30;52.20;;;;;;4998494;28;20497;-64
2023/12/10 00:56:49;;;;;;;20.30;19.50;;;21.30;52.20;;;;;;4998063;28;20517;-64
2023/12/10 00:59:16;;;;;;;20.30;19.40;;;21.30;52.20;;;;;;4998480;28;20922;-63
2023/12/10 01:01:43;;;;;;;19.30;18.70;;;21.30;52.20;;;;;;4998329;28;20467;-62
2023/12/10 01:04:10;;;;;;;20.43;19.50;;;21.30;52.40;;;;;;4998093;28;20443;-63
2023/12/10 01:06:37;;;;;;;19.10;18.50;;;21.30;52.40;;;;;;4998661;28;20505;-61
2023/12/10 01:09:04;;;;;;;18.80;18.20;;;21.30;52.50;;;;;;4998430;28;20501;-63
2023/12/10 01:11:31;;;;;;;19.47;18.67;;;21.30;52.40;;;;;;4998440;28;20466;-63
2023/12/10 01:14:02;;;;;;;19.70;18.80;;;21.30;52.30;;;;;;4998172;28;20450;-64
2023/12/10 01:16:29;;;;;;;20.40;19.57;;;21.30;52.40;;;;;;4998644;28;20447;-63
2023/12/10 01:18:56;;;;;;;19.43;18.47;;;21.30;52.40;;;;;;4998404;28;20450;-63
2023/12/10 01:21:23;;;;;;;19.40;18.60;;;21.30;52.50;;;;;;4990320;28;20469;-63
2023/12/10 01:23:54;;;;;;;21.10;20.20;;;21.20;52.30;;;;;;4998386;28;20855;-63
2023/12/10 01:26:21;;;;;;;19.87;19.07;;;21.30;52.50;;;;;;4998043;28;20439;-62
2023/12/10 01:28:48;;;;;;;20.60;19.87;;;21.20;52.50;;;;;;4998393;28;20497;-65
2023/12/10 01:31:16;;;;;;;18.73;18.07;;;21.20;52.50;;;;;;4998368;28;20918;-65
2023/12/10 01:33:43;;;;;;;19.40;18.63;;;21.20;52.50;;;;;;4998196;28;20493;-65
2023/12/10 01:36:20;;;;;;;19.50;18.60;;;21.20;52.50;;;;;;4997825;28;20451;-65
2023/12/10 01:38:47;;;;;;;20.30;19.40;;;21.20;52.50;;;;;;4997911;28;20453;-64
2023/12/10 01:41:14;;;;;;;19.07;18.40;;;21.20;52.60;;;;;;4998331;28;20466;-65
2023/12/10 01:43:41;;;;;;;19.90;19.13;;;21.20;52.60;;;;;;4998375;28;20505;-65
2023/12/10 01:46:08;;;;;;;20.33;19.53;;;21.20;52.60;;;;;;4997921;28;20498;-65
2023/12/10 01:48:38;;;;;;;18.90;18.07;;;21.20;52.70;;;;;;4998036;28;20438;-65
2023/12/10 01:51:08;;;;;;;19.83;18.93;;;21.20;52.70;;;;;;4997765;28;20540;-63
2023/12/10 01:53:35;;;;;;;20.10;19.03;;;21.20;52.70;;;;;;4998441;28;20475;-62
2023/12/10 01:56:02;;;;;;;19.83;19.23;;;21.20;52.80;;;;;;4997913;28;20451;-63
2023/12/10 01:58:29;;;;;;;19.73;19.10;;;21.20;52.80;;;;;;4998170;28;20439;-63
2023/12/10 02:00:56;;;;;;;21.07;20.37;;;21.20;52.80;;;;;;5013088;23;20510;-64
2023/12/10 02:03:23;;;;;;;21.23;20.43;;;21.20;52.80;;;;;;4994359;28;20489;-65
2023/12/10 02:05:52;;;;;;;20.93;20.13;;;21.20;52.80;;;;;;4988751;28;20443;-65
2023/12/10 02:08:19;;;;;;;21.43;20.17;;;21.10;52.70;;;;;;4994847;28;20435;-65
2023/12/10 02:10:46;;;;;;;20.87;20.03;;;21.10;52.70;;;;;;4994905;28;20912;-65
2023/12/10 02:13:13;;;;;;;19.67;18.93;;;21.10;52.80;;;;;;4994940;28;20942;-65
2023/12/10 02:15:41;;;;;;;19.93;19.30;;;21.10;52.80;;;;;;4988689;28;20447;-65
2023/12/10 02:18:08;;;;;;;20.23;19.17;;;21.10;52.70;;;;;;4994794;28;20451;-65
2023/12/10 02:20:35;;;;;;;20.70;19.83;;;21.10;52.60;;;;;;4994573;28;20497;-65
2023/12/10 02:23:10;;;;;;;20.70;19.83;;;21.10;52.60;;;;;;4994660;28;20443;-65
2023/12/10 02:25:40;;;;;;;20.77;19.87;;;21.10;52.60;;;;;;4994547;28;20442;-65
2023/12/10 02:28:09;;;;;;;21.13;20.27;;;21.10;52.70;;;;;;4989070;28;20450;-65
2023/12/10 02:30:37;;;;;;;21.13;20.53;;;21.10;52.60;;;;;;4994326;28;21095;-65
2023/12/10 02:33:04;;;;;;;20.17;19.57;;;21.10;52.60;;;;;;4994340;28;20455;-65
2023/12/10 02:35:31;;;;;;;20.63;19.83;;;21.10;52.70;;;;;;4994354;28;21008;-65
2023/12/10 02:37:58;;;;;;;20.93;19.90;;;21.10;52.80;;;;;;4994374;28;20453;-65
2023/12/10 02:40:25;;;;;;;20.37;19.57;;;21.10;52.70;;;;;;4991485;28;20463;-65
2023/12/10 02:42:53;;;;;;;20.53;19.73;;;21.00;52.70;;;;;;4994462;28;20863;-65
2023/12/10 02:45:20;;;;;;;20.70;20.00;;;21.00;52.60;;;;;;4994107;28;20493;-65
2023/12/10 02:47:48;;;;;;;20.57;19.77;;;21.00;52.60;;;;;;4994135;28;20447;-65
2023/12/10 02:50:14;;;;;;;20.40;19.80;;;21.00;52.60;;;;;;4994073;28;20557;-65
2023/12/10 02:52:41;;;;;;;20.37;19.40;;;21.00;52.60;;;;;;4989314;28;20470;-65
2023/12/10 02:55:09;;;;;;;20.90;20.00;;;21.00;52.60;;;;;;4991988;28;20497;-65
2023/12/10 02:57:36;;;;;;;19.63;19.03;;;21.00;52.50;;;;;;4994111;28;20530;-65
2023/12/10 03:00:07;;;;;;;19.90;19.20;;;21.00;52.50;;;;;;4993958;28;20910;-65
2023/12/10 03:02:34;;;;;;;19.70;19.10;;;21.00;52.50;;;;;;4993683;28;20838;-65
2023/12/10 03:05:01;;;;;;;25.23;24.03;;;21.00;52.50;;;;;;4992683;28;20931;-65
2023/12/10 03:07:28;;;;;;;24.53;23.37;;;21.00;52.50;;;;;;4985954;28;20509;-65
2023/12/10 03:09:55;;;;;;;24.67;23.57;;;21.00;52.40;;;;;;4993804;28;20443;-65
2023/12/10 03:12:22;;;;;;;23.00;22.20;;;21.00;52.40;;;;;;4987136;28;20470;-65
2023/12/10 03:14:49;;;;;;;23.53;22.70;;;21.00;52.30;;;;;;4992597;28;20588;-65
2023/12/10 03:17:18;;;;;;;23.17;22.27;;;21.00;52.40;;;;;;4993574;28;20483;-65
2023/12/10 03:19:45;;;;;;;23.73;22.90;;;21.00;52.30;;;;;;4993590;28;20505;-65
2023/12/10 03:22:12;;;;;;;23.70;22.70;;;20.90;52.30;;;;;;4987319;28;20463;-65
2023/12/10 03:24:39;;;;;;;24.27;23.47;;;20.90;52.20;;;;;;4993586;28;20443;-65
2023/12/10 03:27:06;;;;;;;24.43;23.27;;;21.00;52.40;;;;;;4993520;28;20505;-65
2023/12/10 03:29:33;;;;;;;23.40;22.63;;;20.90;52.30;;;;;;4993673;28;20443;-65
2023/12/10 03:32:00;;;;;;;24.17;23.30;;;21.00;52.30;;;;;;4993232;28;20901;-65
2023/12/10 03:34:28;;;;;;;26.37;25.47;;;20.90;52.20;;;;;;4992932;28;20851;-65
2023/12/10 03:36:55;;;;;;;19.90;19.30;;;21.00;52.20;;;;;;4993444;28;20450;-65
2023/12/10 03:39:22;;;;;;;20.33;19.60;;;20.90;52.10;;;;;;4993174;28;20505;-65
2023/12/10 03:41:50;;;;;;;20.43;19.63;;;20.90;52.20;;;;;;4993062;28;20525;-65
2023/12/10 03:44:17;;;;;;;20.40;19.50;;;20.90;52.20;;;;;;4993091;28;20942;-66
2023/12/10 03:46:44;;;;;;;20.27;19.50;;;20.90;52.30;;;;;;4986241;28;20451;-66
2023/12/10 03:49:11;;;;;;;21.93;21.03;;;20.90;52.80;;;;;;4993002;28;20443;-65
2023/12/10 03:51:39;;;;;;;20.47;19.67;;;20.90;52.70;;;;;;4993071;28;20812;-66
2023/12/10 03:54:06;;;;;;;21.30;20.60;;;20.90;52.10;;;;;;4992749;28;20443;-65
2023/12/10 03:56:33;;;;;;;20.50;19.70;;;20.90;52.10;;;;;;4992993;28;20447;-67
2023/12/10 03:59:00;;;;;;;21.77;21.10;;;20.90;52.10;;;;;;4993108;28;20439;-71
2023/12/10 04:01:27;;;;;;;21.30;20.20;;;21.00;53.00;;;;;;4992544;28;20462;-70
2023/12/10 04:03:54;;;;;;;21.80;21.00;;;21.00;52.40;;;;;;4989887;28;20448;-71
2023/12/10 04:06:21;;;;;;;21.83;20.83;;;21.00;52.00;;;;;;4991663;28;20446;-71
2023/12/10 04:08:49;;;;;;;20.97;20.27;;;20.90;52.20;;;;;;4992765;28;20451;-71
2023/12/10 04:11:22;;;;;;;20.90;20.10;;;20.90;52.20;;;;;;4992363;28;20487;-72
2023/12/10 04:13:49;;;;;;;20.50;19.80;;;20.90;52.10;;;;;;4991245;28;20447;-71
2023/12/10 04:16:25;;;;;;;20.83;20.20;;;20.90;52.20;;;;;;4992810;28;20501;-72
2023/12/10 04:18:52;;;;;;;21.13;20.40;;;20.90;52.10;;;;;;4992612;28;20865;-71
2023/12/10 04:21:21;;;;;;;20.60;19.67;;;20.90;52.10;;;;;;4992390;28;20885;-71
2023/12/10 04:23:49;;;;;;;20.80;20.00;;;20.80;52.10;;;;;;4991411;28;20447;-70
2023/12/10 04:26:17;;;;;;;21.37;20.47;;;20.80;52.20;;;;;;4992269;28;20873;-72
2023/12/10 04:28:44;;;;;;;21.80;20.90;;;20.80;52.20;;;;;;4992488;28;20866;-71
2023/12/10 04:31:11;;;;;;;22.87;21.90;;;20.90;52.10;;;;;;4992179;28;20483;-72
2023/12/10 04:33:39;;;;;;;22.50;21.80;;;20.90;52.10;;;;;;4992252;28;20478;-71
2023/12/10 04:36:06;;;;;;;21.43;20.63;;;20.80;52.00;;;;;;4991306;28;20529;-71
2023/12/10 04:38:33;;;;;;;22.10;21.20;;;20.80;51.90;;;;;;4992228;28;20517;-71
2023/12/10 04:41:02;;;;;;;21.37;20.37;;;20.90;51.90;;;;;;4992004;28;20455;-71
2023/12/10 04:43:29;;;;;;;20.80;20.00;;;20.80;51.80;;;;;;4991992;28;21111;-71
2023/12/10 04:45:56;;;;;;;21.70;20.73;;;20.80;51.70;;;;;;4992237;28;21190;-72
2023/12/10 04:48:23;;;;;;;20.90;20.10;;;20.80;51.70;;;;;;4984783;28;20447;-71
2023/12/10 04:50:50;;;;;;;20.87;20.17;;;20.80;51.70;;;;;;4992081;28;20487;-71
2023/12/10 04:53:18;;;;;;;20.00;19.37;;;20.80;51.70;;;;;;4992177;28;20522;-73
2023/12/10 04:55:45;;;;;;;20.70;20.10;;;20.90;52.20;;;;;;4992644;28;20809;-71
2023/12/10 04:58:13;;;;;;;20.97;20.23;;;20.90;51.60;;;;;;4991766;28;20934;-72
2023/12/10 05:00:40;;;;;;;22.00;21.30;;;20.90;51.50;;;;;;4985038;28;20830;-72
2023/12/10 05:03:07;;;;;;;21.70;21.10;;;20.90;51.50;;;;;;4992090;28;20866;-71
2023/12/10 05:05:34;;;;;;;22.00;21.30;;;20.90;51.40;;;;;;4992180;28;20458;-72
2023/12/10 05:08:01;;;;;;;22.20;21.33;;;20.90;51.40;;;;;;4992038;28;20947;-72
2023/12/10 05:10:28;;;;;;;23.60;22.47;;;20.90;51.40;;;;;;4991624;28;20447;-71
2023/12/10 05:12:55;;;;;;;22.90;22.10;;;20.90;51.30;;;;;;4990199;28;20799;-72
2023/12/10 05:15:23;;;;;;;22.93;22.00;;;20.90;51.40;;;;;;4992011;28;20931;-71
2023/12/10 05:17:50;;;;;;;22.50;21.70;;;20.90;51.40;;;;;;4991935;28;20493;-71
2023/12/10 05:20:17;;;;;;;22.13;21.33;;;20.90;51.40;;;;;;4991733;28;20446;-71
2023/12/10 05:22:44;;;;;;;22.80;22.10;;;20.90;51.40;;;;;;4988827;28;20888;-71
2023/12/10 05:25:12;;;;;;;22.33;21.63;;;20.90;51.70;;;;;;4988964;28;20996;-71
2023/12/10 05:27:39;;;;;;;26.50;25.20;;;20.90;51.00;;;;;;4991912;28;20953;-71
2023/12/10 05:30:07;;;;;;;23.57;22.77;;;20.90;51.10;;;;;;4991935;28;20529;-72
2023/12/10 05:32:35;;;;;;;22.30;21.50;;;20.90;51.00;;;;;;4983899;28;21056;-71
2023/12/10 05:35:02;;;;;;;22.83;22.13;;;21.00;51.30;;;;;;4987655;28;20455;-72
2023/12/10 05:37:29;;;;;;;23.83;22.93;;;20.90;51.40;;;;;;4992635;28;20534;-72
2023/12/10 05:39:57;;;;;;;23.33;22.57;;;20.90;51.50;;;;;;4995539;28;20454;-72
2023/12/10 05:42:24;;;;;;;23.70;22.90;;;20.90;51.50;;;;;;4995501;28;20459;-71
2023/12/10 05:44:51;;;;;;;23.97;22.37;;;20.90;51.50;;;;;;4995495;28;20455;-72
2023/12/10 05:47:18;;;;;;;22.40;21.60;;;20.90;51.40;;;;;;4991855;28;20969;-72
2023/12/10 05:49:46;;;;;;;23.43;22.53;;;20.90;51.30;;;;;;4995386;28;21120;-72
2023/12/10 05:52:13;;;;;;;22.73;21.83;;;20.90;51.20;;;;;;4995217;28;20474;-71
2023/12/10 05:54:40;;;;;;;23.83;22.83;;;20.90;51.20;;;;;;4995335;28;20451;-71
2023/12/10 05:57:07;;;;;;;23.67;22.87;;;20.90;51.20;;;;;;4994462;28;20446;-70
2023/12/10 05:59:34;;;;;;;24.23;23.30;;;20.90;51.30;;;;;;4995086;28;21181;-71
2023/12/10 06:02:01;;;;;;;23.20;22.50;;;20.90;51.20;;;;;;4994973;28;20466;-72
2023/12/10 06:04:28;;;;;;;22.70;21.90;;;20.90;51.10;;;;;;4995039;28;20873;-72
2023/12/10 06:06:57;;;;;;;23.70;22.80;;;20.90;51.10;;;;;;4994761;28;20459;-70
2023/12/10 06:09:24;;;;;;;23.73;22.83;;;20.90;51.10;;;;;;4995075;28;20447;-71
2023/12/10 06:11:53;;;;;;;24.93;23.83;;;20.90;51.00;;;;;;4994708;28;20486;-72
2023/12/10 06:14:20;;;;;;;23.00;22.20;;;20.90;51.00;;;;;;4994763;28;20497;-71
2023/12/10 06:16:47;;;;;;;22.67;21.97;;;20.90;51.10;;;;;;4994816;28;20501;-72
2023/12/10 06:19:14;;;;;;;23.23;22.43;;;20.90;50.80;;;;;;4993909;28;20443;-71
2023/12/10 06:21:41;;;;;;;22.93;22.17;;;20.90;50.70;;;;;;4994789;28;20470;-71
2023/12/10 06:24:09;;;;;;;22.70;22.00;;;20.90;50.50;;;;;;4994629;28;20446;-70
2023/12/10 06:26:36;;;;;;;23.37;22.57;;;20.90;50.50;;;;;;4980691;28;20505;-71
2023/12/10 06:29:03;;;;;;;24.00;23.10;;;20.90;50.50;;;;;;4994626;28;20509;-72
2023/12/10 06:31:30;;;;;;;22.80;22.10;;;20.80;50.40;;;;;;4994313;28;20487;-71
2023/12/10 06:33:57;;;;;;;21.73;21.03;;;20.80;50.30;;;;;;4994453;28;20842;-71
2023/12/10 06:36:24;;;;;;;21.50;20.80;;;20.80;50.20;;;;;;4988543;28;20452;-71
2023/12/10 06:38:51;;;;;;;22.43;21.70;;;20.80;50.20;;;;;;4994575;28;20443;-72
2023/12/10 06:41:19;;;;;;;22.67;21.97;;;20.80;50.30;;;;;;4994508;28;20885;-70
2023/12/10 06:43:47;;;;;;;22.07;21.47;;;20.80;50.40;;;;;;4994250;28;20451;-71
2023/12/10 06:46:17;;;;;;;22.07;21.27;;;20.90;50.70;;;;;;4994079;28;20799;-72
2023/12/10 06:48:44;;;;;;;23.47;22.67;;;20.90;50.80;;;;;;4986744;28;20449;-72
2023/12/10 06:51:11;;;;;;;21.97;21.27;;;20.90;50.80;;;;;;4993768;28;20490;-71
2023/12/10 06:53:39;;;;;;;22.67;21.87;;;20.80;50.70;;;;;;4994058;28;20883;-70
2023/12/10 06:56:08;;;;;;;22.33;21.63;;;20.80;50.70;;;;;;4994046;28;20482;-71
2023/12/10 06:58:36;;;;;;;23.73;22.83;;;20.80;50.60;;;;;;4994085;28;20446;-71
2023/12/10 07:01:04;;;;;;;22.77;22.07;;;20.80;50.60;;;;;;4988570;28;20470;-72
2023/12/10 07:03:31;;;;;;;23.00;22.30;;;20.80;50.50;;;;;;4994116;28;20497;-71
2023/12/10 07:06:03;;;;;;;23.90;23.10;;;20.90;50.60;;;;;;4993744;28;20459;-70
2023/12/10 07:08:30;;;;;;;23.17;22.37;;;20.80;50.50;;;;;;4993703;28;20489;-71
2023/12/10 07:10:57;;;;;;;24.10;23.30;;;20.80;50.60;;;;;;4993759;28;20522;-71
2023/12/10 07:13:24;;;;;;;22.90;22.13;;;20.80;50.70;;;;;;4986569;28;20498;-71
2023/12/10 07:15:52;;;;;;;23.33;22.20;;;20.80;50.70;;;;;;4993692;28;20502;-71
2023/12/10 07:18:19;;;;;;;22.73;22.07;;;20.80;50.80;;;;;;4993530;28;20930;-71
2023/12/10 07:20:46;;;;;;;21.47;20.77;;;20.80;50.70;;;;;;4993469;28;20966;-71
2023/12/10 07:23:13;;;;;;;22.90;22.10;;;20.80;50.60;;;;;;4992590;28;20490;-71
2023/12/10 07:25:40;;;;;;;23.57;22.50;;;20.80;50.60;;;;;;4993560;28;20858;-72
2023/12/10 07:28:07;;;;;;;23.00;22.30;;;20.90;50.60;;;;;;4993470;28;20502;-71
2023/12/10 07:30:34;;;;;;;23.10;22.20;;;20.80;50.40;;;;;;4993199;28;20491;-71
2023/12/10 07:33:03;;;;;;;23.80;22.77;;;20.80;50.50;;;;;;4992425;28;20914;-71
2023/12/10 07:35:30;;;;;;;23.30;22.50;;;20.80;50.40;;;;;;4993328;28;20443;-71
2023/12/10 07:37:57;;;;;;;23.63;22.83;;;20.80;50.40;;;;;;4992981;28;20447;-72
2023/12/10 07:40:24;;;;;;;22.43;21.77;;;20.80;50.40;;;;;;4993062;28;20546;-71
2023/12/10 07:42:51;;;;;;;21.60;21.00;;;20.90;50.50;;;;;;4992457;28;20447;-72
2023/12/10 07:45:18;;;;;;;23.10;22.30;;;20.80;50.70;;;;;;4993147;28;20447;-72
2023/12/10 07:47:45;;;;;;;22.80;22.10;;;20.80;50.40;;;;;;4992855;28;20451;-72
2023/12/10 07:50:13;;;;;;;22.60;21.80;;;20.80;50.40;;;;;;4993112;28;20447;-72
2023/12/10 07:52:40;;;;;;;23.40;22.30;;;20.80;50.30;;;;;;4985157;28;20486;-71
2023/12/10 07:55:08;;;;;;;23.17;22.47;;;20.80;50.30;;;;;;4991378;28;20444;-72
2023/12/10 07:57:35;;;;;;;24.03;23.33;;;20.80;50.10;;;;;;4992735;28;20443;-72
2023/12/10 08:00:05;;;;;;;24.63;23.83;;;20.80;50.10;;;;;;4992257;28;20458;-71
2023/12/10 08:02:32;;;;;;;23.50;22.57;;;20.80;50.10;;;;;;4986122;28;20471;-70
2023/12/10 08:04:59;;;;;;;23.10;22.40;;;20.80;50.00;;;;;;4992930;28;20446;-72
2023/12/10 08:07:27;;;;;;;23.10;22.40;;;20.80;49.90;;;;;;4992419;28;20509;-72
2023/12/10 08:09:54;;;;;;;22.00;21.40;;;20.80;49.90;;;;;;4992897;28;20842;-71
2023/12/10 08:12:21;;;;;;;22.57;21.77;;;20.80;49.80;;;;;;4991022;28;20839;-72
2023/12/10 08:14:48;;;;;;;22.00;21.40;;;20.80;49.80;;;;;;4986853;28;20442;-71
2023/12/10 08:17:15;;;;;;;24.43;23.53;;;20.80;49.70;;;;;;4992551;28;20447;-72
2023/12/10 08:19:42;;;;;;;23.77;23.07;;;20.80;49.60;;;;;;4992681;28;20497;-71
2023/12/10 08:22:09;;;;;;;24.73;23.73;;;20.80;49.60;;;;;;4992067;28;20491;-71
2023/12/10 08:24:37;;;;;;;23.80;22.90;;;20.80;49.60;;;;;;4985362;28;21070;-73
2023/12/10 08:27:04;;;;;;;23.50;22.67;;;20.80;49.60;;;;;;4992340;28;20514;-71
2023/12/10 08:29:31;;;;;;;23.63;22.73;;;20.80;49.60;;;;;;4992349;28;20447;-72
2023/12/10 08:31:58;;;;;;;24.10;23.13;;;20.80;49.60;;;;;;4989917;28;20479;-72
2023/12/10 08:34:25;;;;;;;24.03;23.23;;;20.80;49.60;;;;;;4990533;28;20443;-72
2023/12/10 08:36:52;;;;;;;23.00;22.30;;;20.80;49.60;;;;;;4992575;28;20442;-71
2023/12/10 08:39:20;;;;;;;24.50;23.30;;;20.80;49.70;;;;;;4992318;28;20495;-72
2023/12/10 08:41:48;;;;;;;23.57;22.77;;;20.80;49.80;;;;;;4991251;28;20458;-72
2023/12/10 08:44:15;;;;;;;24.00;23.10;;;20.80;49.80;;;;;;4992279;28;20450;-73
2023/12/10 08:46:42;;;;;;;24.10;23.20;;;20.80;49.80;;;;;;4984227;28;20843;-73
2023/12/10 08:49:09;;;;;;;23.27;22.57;;;20.80;49.80;;;;;;4992368;28;20443;-73
2023/12/10 08:51:36;;;;;;;24.13;23.27;;;20.80;50.30;;;;;;4991904;28;20462;-73
2023/12/10 08:54:03;;;;;;;24.30;23.40;;;20.80;49.60;;;;;;4992055;28;20443;-72
2023/12/10 08:56:30;;;;;;;23.53;22.83;;;20.80;49.60;;;;;;4991946;28;20447;-73
2023/12/10 08:58:58;;;;;;;24.70;23.70;;;20.80;49.50;;;;;;4992192;28;20534;-73
2023/12/10 09:01:26;;;;;;;23.60;22.70;;;20.80;49.50;;;;;;4992003;28;20880;-64
2023/12/10 09:03:59;;;;;;;23.50;22.70;;;20.80;49.60;;;;;;4985409;28;20439;-66
2023/12/10 09:06:30;;;;;;;23.80;23.00;;;20.90;50.10;;;;;;4990871;28;20451;-70
2023/12/10 09:08:57;;;;;;;25.37;24.37;;;21.00;50.30;;;;;;4991292;28;20943;-70
2023/12/10 09:11:36;;;;;;;24.17;23.40;;;21.00;50.80;;;;;;4993492;28;20521;-71
2023/12/10 09:14:22;;;;;;;23.60;22.90;;;21.10;50.50;;;;;;4990052;28;20450;-67
2023/12/10 09:16:51;;;;;;;23.73;22.93;;;21.10;50.50;;;;;;4989113;28;20861;-66
2023/12/10 09:19:21;;;;;;;24.43;23.53;;;21.10;50.40;;;;;;4995700;28;20493;-65
2023/12/10 09:21:50;;;;;;;24.30;23.50;;;21.10;50.60;;;;;;4995979;28;20872;-66
2023/12/10 09:24:22;;;;;;;24.17;23.20;;;21.20;50.50;;;;;;4990858;28;20955;-64
2023/12/10 09:26:49;;;;;;;25.10;24.30;;;21.20;50.50;;;;;;4995801;28;20451;-64
2023/12/10 09:29:20;;;;;;;24.70;23.70;;;21.20;50.30;;;;;;4995875;28;20791;-64
2023/12/10 09:31:48;;;;;;;24.20;23.23;;;21.20;50.20;;;;;;4995513;28;20530;-64
2023/12/10 09:34:23;;;;;;;23.97;23.27;;;21.20;50.10;;;;;;4993829;28;20455;-62
2023/12/10 09:36:53;;;;;;;23.17;22.20;;;21.30;50.20;;;;;;4989037;28;20526;-64
2023/12/10 09:39:20;;;;;;;23.43;22.63;;;21.30;50.10;;;;;;4995120;28;20451;-64
2023/12/10 09:41:48;;;;;;;23.60;22.80;;;21.30;49.90;;;;;;4995429;28;20493;-64
2023/12/10 09:44:18;;;;;;;24.20;23.20;;;21.40;50.00;;;;;;4995083;28;20455;-64
2023/12/10 09:46:47;;;;;;;24.60;23.70;;;21.40;50.00;;;;;;4991571;28;20475;-64
2023/12/10 09:49:17;;;;;;;24.90;23.97;;;21.40;49.90;;;;;;4994901;28;20458;-66
2023/12/10 09:51:46;;;;;;;24.13;23.33;;;21.40;49.90;;;;;;4987461;28;20533;-63
2023/12/10 09:54:21;;;;;;;24.40;23.60;;;21.50;50.30;;;;;;4995299;28;20446;-62
2023/12/10 09:56:49;;;;;;;23.27;22.40;;;21.50;50.20;;;;;;4995008;28;20493;-60
2023/12/10 09:59:18;;;;;;;24.07;22.93;;;21.60;50.70;;;;;;4995211;28;20514;-62
2023/12/10 10:01:50;;;;;;;23.70;22.90;;;21.60;50.10;;;;;;4986891;28;20454;-63
2023/12/10 10:04:17;;;;;;;24.53;23.77;;;21.60;50.20;;;;;;4994988;28;20431;-61
2023/12/10 10:06:46;;;;;;;18.87;18.27;;;21.60;49.80;;;;;;4985159;28;20517;-65
2023/12/10 10:09:16;;;;;;;17.83;17.33;;;21.70;50.20;;;;;;4991115;28;20938;-70
2023/12/10 10:11:49;;;;;;;17.77;17.07;;;21.80;50.40;;;;;;4994768;28;20807;-66
2023/12/10 10:14:18;;;;;;;17.87;17.27;;;21.80;50.60;;;;;;4994482;28;20524;-66
2023/12/10 10:16:49;;;;;;;17.87;17.27;;;21.90;50.30;;;;;;4994591;28;20447;-66
2023/12/10 10:19:16;;;;;;;17.83;17.13;;;21.90;49.80;;;;;;4993501;28;20446;-65
2023/12/10 10:21:43;;;;;;;19.37;18.03;;;22.00;49.70;;;;;;4994481;28;20462;-64
2023/12/10 10:24:11;;;;;;;17.17;16.43;;;22.00;49.90;;;;;;4993995;28;20442;-64
2023/12/10 10:26:39;;;;;;;16.60;16.10;;;22.00;49.80;;;;;;4993974;28;20453;-65
2023/12/10 10:29:07;;;;;;;17.40;16.60;;;22.10;49.80;;;;;;4993041;28;20443;-66
2023/12/10 10:31:36;;;;;;;18.10;17.30;;;22.10;49.90;;;;;;4992607;28;20470;-62
2023/12/10 10:34:04;;;;;;;17.67;17.00;;;22.10;50.50;;;;;;4994536;28;21001;-64
2023/12/10 10:36:32;;;;;;;18.03;17.43;;;22.20;50.00;;;;;;4994471;28;20504;-64
2023/12/10 10:38:59;;;;;;;17.00;16.50;;;22.20;49.60;;;;;;4994017;28;20439;-64
2023/12/10 10:41:26;;;;;;;17.37;16.67;;;22.20;49.90;;;;;;4993985;28;20522;-63
2023/12/10 10:43:54;;;;;;;15.88;15.48;;;22.20;49.40;;;;;;4994068;28;20490;-64
2023/12/10 10:46:22;;;;;;;17.30;16.67;;;22.20;49.80;;;;;;4994017;28;20211;-65
2023/12/10 10:48:52;;;;;;;17.67;16.97;;;22.30;50.60;;;;;;4994019;28;20439;-65
2023/12/10 10:51:23;;;;;;;18.13;17.30;;;22.30;50.60;;;;;;4994019;28;20467;-65
2023/12/10 10:53:52;;;;;;;18.83;18.00;;;22.30;50.40;;;;;;4986806;28;20982;-65
2023/12/10 10:56:19;;;;;;;19.80;18.10;;;22.30;50.10;;;;;;4994223;28;20502;-65
2023/12/10 10:58:46;;;;;;;23.00;18.10;;;22.40;51.10;;;;;;4986422;28;20586;-65
2023/12/10 11:01:39;;;;;;;20.47;19.07;;;22.40;51.30;;;;;;4987570;28;20897;-65
2023/12/10 11:04:08;;;;;;;18.27;17.33;;;22.40;54.80;;;;;;4988438;28;20439;-65
2023/12/10 11:06:37;;;;;;;18.87;17.80;;;22.50;52.00;;;;;;4993748;28;20505;-65
2023/12/10 11:09:04;;;;;;;23.30;20.43;;;22.50;53.10;;;;;;4993737;28;20442;-65
2023/12/10 11:11:38;;;;;;;21.90;20.03;;;22.50;62.60;;;;;;4993594;28;20462;-64
2023/12/10 11:14:10;;;;;;;22.00;20.00;;;22.60;59.60;;;;;;4988716;28;20564;-64
2023/12/10 11:16:39;;;;;;;27.13;18.63;;;22.60;57.00;;;;;;4993759;28;20443;-64
2023/12/10 11:19:07;;;;;;;19.67;18.17;;;22.70;55.00;;;;;;4993661;28;20915;-64
2023/12/10 11:21:34;;;;;;;22.43;20.23;;;22.60;56.00;;;;;;4992033;28;20463;-63
2023/12/10 11:24:02;;;;;;;19.07;17.47;;;22.60;58.10;;;;;;4993547;28;20442;-64
2023/12/10 11:26:29;;;;;;;19.40;18.10;;;22.60;57.20;;;;;;4993463;28;20976;-63
2023/12/10 11:28:56;;;;;;;20.93;19.10;;;22.60;56.10;;;;;;4993484;28;20447;-64
2023/12/10 11:31:24;;;;;;;20.67;18.90;;;22.60;55.60;;;;;;4992732;28;20462;-64
2023/12/10 11:33:51;;;;;;;17.73;16.63;;;22.60;55.30;;;;;;4992987;28;20475;-64
2023/12/10 11:36:20;;;;;;;19.43;17.97;;;22.60;54.90;;;;;;4992687;28;20509;-63
2023/12/10 11:38:47;;;;;;;19.17;18.20;;;22.60;54.70;;;;;;4993215;28;20439;-64
2023/12/10 11:41:14;;;;;;;21.03;19.37;;;22.60;54.50;;;;;;4993267;28;20550;-64
2023/12/10 11:43:44;;;;;;;19.00;17.53;;;22.60;54.30;;;;;;4993228;28;20498;-64
2023/12/10 11:46:11;;;;;;;20.53;19.43;;;22.60;54.10;;;;;;4993083;28;20443;-63
2023/12/10 11:48:38;;;;;;;19.00;17.80;;;22.60;53.80;;;;;;4993020;28;21013;-64
2023/12/10 11:51:05;;;;;;;20.07;18.83;;;22.60;53.70;;;;;;4992992;28;20475;-63
2023/12/10 11:53:33;;;;;;;20.27;19.10;;;22.60;53.50;;;;;;4993023;28;20478;-63
2023/12/10 11:56:00;;;;;;;20.73;19.50;;;22.60;53.30;;;;;;4992979;28;20447;-64
2023/12/10 11:58:28;;;;;;;18.80;18.00;;;22.60;53.20;;;;;;4992739;28;20953;-64
2023/12/10 12:00:58;;;;;;;18.70;17.67;;;22.60;53.10;;;;;;4992416;28;20475;-64
2023/12/10 12:03:26;;;;;;;18.70;17.77;;;22.60;53.00;;;;;;4993019;28;20447;-63
2023/12/10 12:05:53;;;;;;;19.30;18.00;;;22.60;52.90;;;;;;4992703;28;20451;-63
2023/12/10 12:08:20;;;;;;;18.13;17.27;;;22.60;52.80;;;;;;4992761;28;20458;-64
2023/12/10 12:10:50;;;;;;;18.63;17.73;;;22.60;52.60;;;;;;4992519;28;20462;-64
2023/12/10 12:13:17;;;;;;;18.37;17.40;;;22.60;52.50;;;;;;4992661;28;20536;-64
2023/12/10 12:15:46;;;;;;;19.57;18.00;;;22.60;52.30;;;;;;4992404;28;20453;-63
2023/12/10 12:18:13;;;;;;;18.83;17.50;;;22.60;52.30;;;;;;4992462;28;20466;-64
2023/12/10 12:20:40;;;;;;;17.97;17.13;;;22.60;52.20;;;;;;4992380;28;20447;-64
2023/12/10 12:23:07;;;;;;;19.27;18.37;;;22.60;52.10;;;;;;4992674;28;20803;-64
2023/12/10 12:25:37;;;;;;;20.33;19.47;;;22.60;52.00;;;;;;4992432;28;20443;-64
2023/12/10 12:28:06;;;;;;;19.43;18.23;;;22.70;52.10;;;;;;4992448;28;20446;-63
2023/12/10 12:30:34;;;;;;;20.37;18.67;;;22.60;52.00;;;;;;4992009;28;20501;-63